Time;durP1;ratioP1;P1;durP2;ratioP2;P2;SDS_P1;SDS_P2;PMS_P1;PMS_P2;Temp;Humidity;BMP_temperature;BMP_pressure;BME280_temperature;BME280_humidity;BME280_pressure;Samples;Min_cycle;Max_cycle;Signal;HPM_P1;HPM_P2
2021/12/30 00:02:05;;;;;;;;;;;;;;;20.69;34.94;100595.98;100666;1354;73941;-82
2021/12/30 00:04:51;;;;;;;;;;;;;;;20.69;34.85;100599.36;100758;1354;75273;-81
2021/12/30 00:07:24;;;;;;;;;;;;;;;20.69;34.87;100606.34;100671;1350;62165;-82
2021/12/30 00:09:58;;;;;;;;;;;;;;;20.69;34.97;100608.48;100705;1351;60372;-82
2021/12/30 00:12:47;;;;;;;;;;;;;;;20.68;35.08;100608.50;100942;1351;72779;-83
2021/12/30 00:15:22;;;;;;;;;;;;;;;20.68;34.99;100611.54;100625;1355;74858;-82
2021/12/30 00:18:08;;;;;;;;;;;;;;;20.68;35.16;100613.52;100727;1348;60675;-82
2021/12/30 00:20:34;;;;;;;;;;;;;;;20.68;34.82;100613.72;100531;1350;61441;-82
2021/12/30 00:23:13;;;;;;;;;;;;;;;20.68;35.13;100616.74;100991;1345;61670;-82
2021/12/30 00:25:58;;;;;;;;;;;;;;;20.68;34.86;100617.64;101222;1350;74024;-82
2021/12/30 00:28:33;;;;;;;;;;;;;;;20.68;34.89;100622.29;101268;1344;60482;-82
2021/12/30 00:31:21;;;;;;;;;;;;;;;20.68;34.86;100627.48;101393;1344;61408;-82
2021/12/30 00:34:07;;;;;;;;;;;;;;;20.67;34.87;100630.73;101364;1347;73824;-82
2021/12/30 00:36:47;;;;;;;;;;;;;;;;;;;;;
2021/12/30 00:39:53;;;;;;;;;;;;;;;20.67;34.70;100639.16;101320;1345;60468;-81
2021/12/30 00:43:00;;;;;;;;;;;;;;;20.67;34.91;100640.23;101340;1344;60384;-82
2021/12/30 00:45:24;;;;;;;;;;;;;;;20.67;34.91;100643.61;101356;1345;72955;-82
2021/12/30 00:48:02;;;;;;;;;;;;;;;20.68;34.95;100637.86;101412;1348;74017;-82
2021/12/30 00:50:37;;;;;;;;;;;;;;;20.67;34.84;100632.34;101347;1347;60489;-81
2021/12/30 00:53:43;;;;;;;;;;;;;;;20.67;34.83;100634.47;101340;1344;60438;-82
2021/12/30 00:56:08;;;;;;;;;;;;;;;20.67;34.85;100637.89;101367;1347;72695;-82
2021/12/30 00:58:54;;;;;;;;;;;;;;;20.67;34.86;100638.27;101302;1347;71642;-83
2021/12/30 01:01:20;;;;;;;;;;;;;;;20.67;34.78;100639.13;101133;1344;60481;-83
2021/12/30 01:04:10;;;;;;;;;;;;;;;20.67;34.97;100642.55;101222;1344;60429;-83
2021/12/30 01:06:56;;;;;;;;;;;;;;;20.67;34.80;100642.73;101261;1344;73112;-83
2021/12/30 01:09:22;;;;;;;;;;;;;;;20.66;34.91;100642.05;101335;1344;61638;-84
2021/12/30 01:12:08;;;;;;;;;;;;;;;20.67;34.82;100646.29;101242;1344;60486;-83
2021/12/30 01:14:53;;;;;;;;;;;;;;;20.67;34.77;100648.66;101377;1344;60656;-83
2021/12/30 01:17:42;;;;;;;;;;;;;;;20.66;34.69;100650.12;101361;1347;73762;-83
2021/12/30 01:20:08;;;;;;;;;;;;;;;20.67;34.73;100649.19;101321;1350;73793;-83
2021/12/30 01:22:53;;;;;;;;;;;;;;;20.66;34.78;100650.14;101362;1347;60801;-83
2021/12/30 01:25:39;;;;;;;;;;;;;;;20.66;34.78;100648.16;101312;1344;60496;-83
2021/12/30 01:28:05;;;;;;;;;;;;;;;20.66;34.88;100647.26;101360;1344;71743;-83
2021/12/30 01:30:42;;;;;;;;;;;;;;;;;;;;;
2021/12/30 01:33:14;;;;;;;;;;;;;;;20.66;34.69;100642.96;101069;1347;61187;-83
2021/12/30 01:35:46;;;;;;;;;;;;;;;20.66;34.88;100645.48;101403;1349;61420;-82
2021/12/30 01:38:41;;;;;;;;;;;;;;;20.66;34.89;100644.27;101281;1350;60483;-82
2021/12/30 01:41:13;;;;;;;;;;;;;;;20.65;34.71;100648.20;100577;1351;74393;-83
2021/12/30 01:43:39;;;;;;;;;;;;;;;20.65;35.02;100647.16;100740;1352;60446;-83
2021/12/30 01:46:15;;;;;;;;;;;;;;;;;;;;;
2021/12/30 01:49:14;;;;;;;;;;;;;;;20.65;34.87;100650.94;100251;1359;72894;-82
2021/12/30 01:52:00;;;;;;;;;;;;;;;20.65;34.69;100650.56;99877;1365;72727;-81
2021/12/30 01:54:47;;;;;;;;;;;;;;;20.65;34.93;100657.69;99765;1365;60493;-81
2021/12/30 01:57:24;;;;;;;;;;;;;;;;;;;;;
2021/12/30 02:00:21;;;;;;;;;;;;;;;20.65;34.79;100661.08;99834;1359;73705;-82
2021/12/30 02:03:09;;;;;;;;;;;;;;;20.65;34.87;100660.02;99715;1359;74867;-82
2021/12/30 02:05:47;;;;;;;;;;;;;;;20.65;34.85;100656.27;99902;1360;60857;-82
2021/12/30 02:08:14;;;;;;;;;;;;;;;20.65;34.85;100653.06;99883;1360;61488;-81
2021/12/30 02:11:00;;;;;;;;;;;;;;;20.65;34.71;100654.84;99777;1360;73583;-82
2021/12/30 02:13:29;;;;;;;;;;;;;;;20.65;34.88;100654.87;99780;1359;75151;-81
2021/12/30 02:16:16;;;;;;;;;;;;;;;20.65;34.62;100652.34;99835;1363;60491;-82
2021/12/30 02:19:01;;;;;;;;;;;;;;;20.65;34.89;100654.88;100031;1356;60355;-82
2021/12/30 02:21:38;;;;;;;;;;;;;;;;;;;;;
2021/12/30 02:24:42;;;;;;;;;;;;;;;;;;;;;
2021/12/30 02:27:10;;;;;;;;;;;;;;;20.65;34.83;100660.73;100771;1347;61451;-82
2021/12/30 02:29:36;;;;;;;;;;;;;;;20.65;34.86;100668.79;100942;1350;60590;-82
2021/12/30 02:32:33;;;;;;;;;;;;;;;20.65;34.70;100677.58;101287;1347;72922;-82
2021/12/30 02:35:03;;;;;;;;;;;;;;;20.65;34.98;100681.70;101269;1344;74311;-81
2021/12/30 02:37:32;;;;;;;;;;;;;;;20.65;34.80;100682.39;101396;1344;60441;-82
2021/12/30 02:40:38;;;;;;;;;;;;;;;;;;;;;
2021/12/30 02:43:12;;;;;;;;;;;;;;;20.65;34.86;100684.02;101352;1347;73801;-82
2021/12/30 02:45:43;;;;;;;;;;;;;;;20.65;34.88;100691.68;101347;1344;73836;-82
2021/12/30 02:48:43;;;;;;;;;;;;;;;;;;;;;
2021/12/30 02:51:24;;;;;;;;;;;;;;;20.64;34.89;100700.66;100970;1354;60529;-82
2021/12/30 02:53:50;;;;;;;;;;;;;;;20.64;35.03;100699.95;100775;1351;73027;-82
2021/12/30 02:56:49;;;;;;;;;;;;;;;;;;;;;
2021/12/30 02:59:24;;;;;;;;;;;;;;;20.64;35.06;100701.57;100796;1354;60647;-82
2021/12/30 03:02:00;;;;;;;;;;;;;;;;;;;;;
2021/12/30 03:04:46;;;;;;;;;;;;;;;20.64;35.06;100705.15;100742;1354;73411;-83
2021/12/30 03:07:23;;;;;;;;;;;;;;;;;;;;;
2021/12/30 03:10:27;;;;;;;;;;;;;;;20.64;34.89;100709.27;100783;1354;60349;-81
2021/12/30 03:13:07;;;;;;;;;;;;;;;;;;;;;
2021/12/30 03:15:33;;;;;;;;;;;;;;;20.64;34.95;100713.23;100722;1353;74255;-81
2021/12/30 03:18:18;;;;;;;;;;;;;;;20.64;35.10;100720.21;100732;1354;60469;-81
2021/12/30 03:21:04;;;;;;;;;;;;;;;20.64;34.84;100722.17;100383;1357;60988;-82
2021/12/30 03:23:32;;;;;;;;;;;;;;;20.64;34.88;100718.60;100685;1350;60929;-82
2021/12/30 03:26:41;;;;;;;;;;;;;;;20.64;34.96;100719.15;100785;1348;71528;-82
2021/12/30 03:29:26;;;;;;;;;;;;;;;20.64;34.97;100723.64;101128;1347;74945;-82
2021/12/30 03:32:18;;;;;;;;;;;;;;;20.63;35.03;100724.90;101261;1350;61178;-82
2021/12/30 03:34:49;;;;;;;;;;;;;;;20.64;35.02;100728.78;100683;1354;60431;-82
2021/12/30 03:37:24;;;;;;;;;;;;;;;20.64;34.85;100730.41;100820;1349;73108;-82
2021/12/30 03:40:00;;;;;;;;;;;;;;;20.63;34.89;100740.27;100804;1354;74178;-83
2021/12/30 03:42:26;;;;;;;;;;;;;;;20.63;35.03;100739.38;100760;1347;60328;-81
2021/12/30 03:45:09;;;;;;;;;;;;;;;20.63;34.94;100744.75;100462;1354;61339;-82
2021/12/30 03:47:41;;;;;;;;;;;;;;;20.63;34.85;100745.83;100817;1354;72694;-82
2021/12/30 03:50:19;;;;;;;;;;;;;;;20.63;34.88;100748.55;100503;1349;74062;-82
2021/12/30 03:53:04;;;;;;;;;;;;;;;20.63;34.98;100749.95;100360;1354;60604;-84
2021/12/30 03:55:51;;;;;;;;;;;;;;;20.63;34.90;100749.08;100532;1350;60499;-83
2021/12/30 03:58:38;;;;;;;;;;;;;;;;;;;;;
2021/12/30 04:01:35;;;;;;;;;;;;;;;20.62;35.10;100754.48;100920;1354;75424;-82
2021/12/30 04:04:14;;;;;;;;;;;;;;;20.62;34.84;100761.47;100652;1350;60461;-82
2021/12/30 04:06:49;;;;;;;;;;;;;;;20.62;34.89;100771.83;100326;1356;60526;-82
2021/12/30 04:09:36;;;;;;;;;;;;;;;20.62;34.97;100777.19;100719;1354;73794;-83
2021/12/30 04:12:08;;;;;;;;;;;;;;;20.62;34.94;100782.73;100879;1346;73938;-83
2021/12/30 04:14:54;;;;;;;;;;;;;;;20.62;34.85;100784.21;101449;1344;60538;-83
2021/12/30 04:17:22;;;;;;;;;;;;;;;20.62;34.95;100784.56;100836;1351;60794;-83
2021/12/30 04:19:48;;;;;;;;;;;;;;;20.61;34.89;100785.11;101359;1350;73980;-83
2021/12/30 04:22:53;;;;;;;;;;;;;;;20.62;34.92;100790.63;101367;1344;72803;-83
2021/12/30 04:25:28;;;;;;;;;;;;;;;20.61;35.02;100792.80;101348;1344;60472;-82
2021/12/30 04:28:04;;;;;;;;;;;;;;;20.60;34.81;100796.59;101369;1344;60460;-83
2021/12/30 04:30:40;;;;;;;;;;;;;;;20.60;34.93;100800.72;101198;1351;71813;-83
2021/12/30 04:33:28;;;;;;;;;;;;;;;20.60;34.92;100807.34;101316;1344;74035;-83
2021/12/30 04:35:56;;;;;;;;;;;;;;;20.61;34.75;100819.83;101365;1350;60438;-83
2021/12/30 04:38:50;;;;;;;;;;;;;;;20.60;34.84;100828.10;101331;1350;60444;-83
2021/12/30 04:41:15;;;;;;;;;;;;;;;20.60;34.93;100836.64;101253;1347;73625;-84
2021/12/30 04:44:02;;;;;;;;;;;;;;;20.60;34.95;100841.13;101240;1344;60491;-83
2021/12/30 04:46:52;;;;;;;;;;;;;;;20.60;34.78;100851.16;101410;1344;60559;-83
2021/12/30 04:49:38;;;;;;;;;;;;;;;20.60;34.84;100853.14;101338;1349;60448;-83
2021/12/30 04:52:15;;;;;;;;;;;;;;;20.60;34.85;100857.23;101375;1347;72653;-83
2021/12/30 04:54:51;;;;;;;;;;;;;;;;;;;;;
2021/12/30 04:57:24;;;;;;;;;;;;;;;20.59;35.00;100855.84;101329;1347;61656;-83
2021/12/30 05:00:10;;;;;;;;;;;;;;;20.60;34.87;100860.66;101269;1350;60970;-83
2021/12/30 05:03:27;;;;;;;;;;;;;;;20.59;35.06;100862.83;101011;1348;72922;-83
2021/12/30 05:05:38;;;;;;;;;;;;;;;;;;;;;
2021/12/30 05:08:11;;;;;;;;;;;;;;;20.59;34.98;100874.09;100726;1354;60978;-83
2021/12/30 05:11:14;;;;;;;;;;;;;;;20.60;35.12;100877.11;100996;1349;60562;-83
2021/12/30 05:13:39;;;;;;;;;;;;;;;20.59;34.95;100878.19;100610;1351;74000;-83
2021/12/30 05:16:23;;;;;;;;;;;;;;;;;;;;;
2021/12/30 05:19:20;;;;;;;;;;;;;;;20.59;34.98;100884.31;100699;1355;59401;-83
2021/12/30 05:22:08;;;;;;;;;;;;;;;20.59;34.95;100888.94;100733;1354;60467;-83
2021/12/30 05:24:58;;;;;;;;;;;;;;;20.60;34.88;100896.06;100595;1351;72790;-83
2021/12/30 05:27:42;;;;;;;;;;;;;;;20.59;34.93;100894.84;100681;1351;74986;-83
2021/12/30 05:30:19;;;;;;;;;;;;;;;20.59;35.10;100898.41;101011;1346;60929;-83
2021/12/30 05:32:47;;;;;;;;;;;;;;;20.59;35.03;100901.69;100761;1351;60501;-83
2021/12/30 05:35:26;;;;;;;;;;;;;;;20.59;35.00;100897.74;100750;1354;73812;-82
2021/12/30 05:38:09;;;;;;;;;;;;;;;;;;;;;
2021/12/30 05:40:55;;;;;;;;;;;;;;;20.58;34.96;100901.14;101078;1342;60524;-83
2021/12/30 05:43:32;;;;;;;;;;;;;;;;;;;;;
2021/12/30 05:46:18;;;;;;;;;;;;;;;20.58;35.04;100910.81;101370;1345;72710;-83
2021/12/30 05:49:04;;;;;;;;;;;;;;;20.58;35.02;100918.52;101388;1349;74545;-82
2021/12/30 05:51:48;;;;;;;;;;;;;;;20.58;34.93;100918.70;101423;1344;60518;-82
2021/12/30 05:55:08;;;;;;;;;;;;;;;20.58;34.96;100927.64;100838;1348;60438;-82
2021/12/30 05:57:54;;;;;;;;;;;;;;;20.59;34.88;100938.15;101396;1345;73586;-82
2021/12/30 06:00:44;;;;;;;;;;;;;;;20.59;34.92;100950.48;101364;1344;74033;-82
2021/12/30 06:03:19;;;;;;;;;;;;;;;;;;;;;
2021/12/30 06:06:03;;;;;;;;;;;;;;;20.59;35.00;100966.40;101432;1347;60481;-82
2021/12/30 06:08:31;;;;;;;;;;;;;;;20.58;34.92;100968.39;101313;1348;73533;-82
2021/12/30 06:11:37;;;;;;;;;;;;;;;20.58;35.01;100969.29;100441;1352;72731;-81
2021/12/30 06:14:02;;;;;;;;;;;;;;;20.59;35.02;100978.02;100881;1350;60408;-80
2021/12/30 06:16:35;;;;;;;;;;;;;;;20.58;34.91;100983.77;100430;1350;60570;-81
2021/12/30 06:19:21;;;;;;;;;;;;;;;20.59;35.06;100992.88;100611;1356;72931;-81
2021/12/30 06:22:07;;;;;;;;;;;;;;;20.59;34.96;101005.02;100551;1350;75170;-82
2021/12/30 06:24:51;;;;;;;;;;;;;;;20.59;35.15;101011.80;100587;1349;60463;-82
2021/12/30 06:27:17;;;;;;;;;;;;;;;20.59;34.93;101014.52;100568;1350;61669;-82
2021/12/30 06:29:51;;;;;;;;;;;;;;;20.59;34.75;101018.22;100370;1350;60495;-82
2021/12/30 06:32:27;;;;;;;;;;;;;;;;;;;;;
2021/12/30 06:35:34;;;;;;;;;;;;;;;;;;;;;
2021/12/30 06:38:11;;;;;;;;;;;;;;;;;;;;;
2021/12/30 06:40:56;;;;;;;;;;;;;;;;;;;;;
2021/12/30 06:43:22;;;;;;;;;;;;;;;20.59;35.00;101040.43;100586;1347;73925;-82
2021/12/30 06:46:05;;;;;;;;;;;;;;;20.59;35.09;101043.31;100417;1350;60344;-81
2021/12/30 06:48:44;;;;;;;;;;;;;;;20.59;34.96;101045.08;100777;1344;60521;-82
2021/12/30 06:51:35;;;;;;;;;;;;;;;20.59;34.98;101049.91;100319;1353;72732;-82
2021/12/30 06:54:02;;;;;;;;;;;;;;;20.59;34.95;101054.52;100311;1351;73903;-82
2021/12/30 06:56:59;;;;;;;;;;;;;;;;;;;;;
2021/12/30 06:59:45;;;;;;;;;;;;;;;20.61;34.85;101068.02;100377;1349;60353;-81
2021/12/30 07:02:11;;;;;;;;;;;;;;;20.61;34.98;101074.27;100347;1350;73253;-82
2021/12/30 07:05:10;;;;;;;;;;;;;;;20.62;34.71;101081.90;100504;1350;74288;-82
2021/12/30 07:08:25;;;;;;;;;;;;;;;20.63;34.85;101084.36;100355;1350;60430;-82
2021/12/30 07:11:10;;;;;;;;;;;;;;;;;;;;;
2021/12/30 07:13:56;;;;;;;;;;;;;;;20.64;34.94;101092.70;100196;1359;72883;-82
2021/12/30 07:16:48;;;;;;;;;;;;;;;20.64;34.98;101097.14;100051;1355;75012;-82
2021/12/30 07:19:21;;;;;;;;;;;;;;;20.65;34.93;101105.15;100149;1355;61066;-82
2021/12/30 07:21:54;;;;;;;;;;;;;;;20.65;34.87;101110.31;100138;1353;61550;-82
2021/12/30 07:24:34;;;;;;;;;;;;;;;;;;;;;
2021/12/30 07:27:29;;;;;;;;;;;;;;;20.65;34.96;101114.77;100216;1360;74965;-82
2021/12/30 07:30:14;;;;;;;;;;;;;;;20.66;35.05;101119.73;100481;1349;61110;-82
2021/12/30 07:32:45;;;;;;;;;;;;;;;20.67;34.80;101125.95;100538;1356;60494;-81
2021/12/30 07:35:31;;;;;;;;;;;;;;;20.67;34.95;101133.80;100540;1356;60443;-82
2021/12/30 07:38:00;;;;;;;;;;;;;;;20.68;34.81;101142.34;100566;1350;74269;-82
2021/12/30 07:41:07;;;;;;;;;;;;;;;20.68;34.93;101140.73;100504;1349;60578;-82
2021/12/30 07:43:42;;;;;;;;;;;;;;;20.68;34.78;101144.46;100430;1349;61563;-82
2021/12/30 07:46:38;;;;;;;;;;;;;;;20.69;34.88;101143.38;100574;1350;73641;-82
2021/12/30 07:49:05;;;;;;;;;;;;;;;20.69;34.90;101149.61;101171;1345;73838;-82
2021/12/30 07:51:48;;;;;;;;;;;;;;;20.69;34.91;101155.69;101363;1342;60694;-82
2021/12/30 07:54:45;;;;;;;;;;;;;;;;;;;;;
2021/12/30 07:57:55;;;;;;;;;;;;;;;20.69;34.90;101170.68;101332;1344;71452;-82
2021/12/30 08:00:42;;;;;;;;;;;;;;;20.70;34.84;101175.14;101309;1344;75171;-82
2021/12/30 08:03:45;;;;;;;;;;;;;;;;;;;;;
2021/12/30 08:06:21;;;;;;;;;;;;;;;20.71;34.96;101178.48;100672;1348;60753;-82
2021/12/30 08:09:27;;;;;;;;;;;;;;;20.72;34.73;101186.83;100623;1348;74199;-82
2021/12/30 08:12:13;;;;;;;;;;;;;;;20.71;34.88;101188.80;100625;1351;74761;-82
2021/12/30 08:14:48;;;;;;;;;;;;;;;;;;;;;
2021/12/30 08:17:23;;;;;;;;;;;;;;;20.72;34.89;101202.02;100687;1355;60522;-82
2021/12/30 08:19:51;;;;;;;;;;;;;;;20.72;34.93;101206.46;100716;1348;72504;-81
2021/12/30 08:23:05;;;;;;;;;;;;;;;;;;;;;
2021/12/30 08:25:52;;;;;;;;;;;;;;;;;;;;;
2021/12/30 08:28:21;;;;;;;;;;;;;;;20.72;34.92;101215.77;100726;1348;61411;-82
2021/12/30 08:31:09;;;;;;;;;;;;;;;20.72;34.98;101219.69;100590;1351;73935;-82
2021/12/30 08:33:54;;;;;;;;;;;;;;;20.72;34.93;101224.34;100645;1354;74007;-81
2021/12/30 08:36:32;;;;;;;;;;;;;;;20.72;34.71;101222.21;100714;1348;62046;-81
2021/12/30 08:39:20;;;;;;;;;;;;;;;20.72;35.04;101222.22;100767;1348;61452;-82
2021/12/30 08:41:45;;;;;;;;;;;;;;;20.72;34.92;101222.41;100720;1351;73743;-82
2021/12/30 08:44:40;;;;;;;;;;;;;;;20.72;34.78;101222.05;101236;1344;77058;-82
2021/12/30 08:47:09;;;;;;;;;;;;;;;20.72;34.72;101227.57;101436;1341;60466;-81
2021/12/30 08:49:35;;;;;;;;;;;;;;;20.72;34.89;101226.52;101355;1342;60573;-81
2021/12/30 08:52:01;;;;;;;;;;;;;;;20.72;34.92;101232.39;101240;1349;60531;-82
2021/12/30 08:54:53;;;;;;;;;;;;;;;20.72;34.75;101232.06;101353;1344;74663;-82
2021/12/30 08:57:26;;;;;;;;;;;;;;;20.72;34.90;101237.05;100748;1348;60553;-82
2021/12/30 09:00:05;;;;;;;;;;;;;;;;;;;;;
2021/12/30 09:02:51;;;;;;;;;;;;;;;20.72;34.84;101250.10;100744;1349;70742;-81
2021/12/30 09:05:30;;;;;;;;;;;;;;;20.72;34.90;101251.70;100591;1348;74271;-83
2021/12/30 09:08:24;;;;;;;;;;;;;;;20.72;34.73;101249.22;100674;1355;60474;-83
2021/12/30 09:11:06;;;;;;;;;;;;;;;;;;;;;
2021/12/30 09:13:54;;;;;;;;;;;;;;;;;;;;;
2021/12/30 09:16:37;;;;;;;;;;;;;;;;;;;;;
2021/12/30 09:19:23;;;;;;;;;;;;;;;20.72;34.81;101263.86;100658;1355;60343;-83
2021/12/30 09:22:10;;;;;;;;;;;;;;;20.73;34.95;101264.01;100727;1348;61729;-83
2021/12/30 09:24:56;;;;;;;;;;;;;;;20.73;34.74;101265.45;100706;1351;73705;-83
2021/12/30 09:27:23;;;;;;;;;;;;;;;20.73;34.84;101267.93;100759;1351;72859;-83
2021/12/30 09:30:10;;;;;;;;;;;;;;;20.73;34.82;101267.59;100763;1348;60441;-83
2021/12/30 09:32:59;;;;;;;;;;;;;;;20.72;34.85;101271.56;100485;1348;60512;-83
2021/12/30 09:35:47;;;;;;;;;;;;;;;20.73;34.99;101271.02;100562;1350;74134;-82
2021/12/30 09:38:34;;;;;;;;;;;;;;;20.73;34.95;101270.09;100568;1353;73251;-83
2021/12/30 09:41:12;;;;;;;;;;;;;;;;;;;;;
2021/12/30 09:43:38;;;;;;;;;;;;;;;20.73;34.98;101268.15;100485;1350;61321;-82
2021/12/30 09:46:16;;;;;;;;;;;;;;;20.72;34.89;101266.54;100382;1349;73965;-82
2021/12/30 09:48:44;;;;;;;;;;;;;;;20.73;34.96;101270.98;100327;1350;74643;-82
2021/12/30 09:51:23;;;;;;;;;;;;;;;20.73;35.08;101272.05;100699;1350;60495;-82
2021/12/30 09:53:52;;;;;;;;;;;;;;;20.73;34.97;101274.20;100616;1350;60396;-82
2021/12/30 09:56:24;;;;;;;;;;;;;;;20.72;34.87;101276.04;100576;1350;73867;-81
2021/12/30 09:58:50;;;;;;;;;;;;;;;20.73;35.08;101279.91;100567;1350;75014;-82
2021/12/30 10:01:27;;;;;;;;;;;;;;;20.73;34.83;101283.66;100533;1354;60583;-82
2021/12/30 10:03:56;;;;;;;;;;;;;;;20.73;34.94;101278.48;100486;1351;60550;-82
2021/12/30 10:06:33;;;;;;;;;;;;;;;;;;;;;
2021/12/30 10:09:00;;;;;;;;;;;;;;;20.74;35.03;101280.77;100468;1350;74035;-82
2021/12/30 10:11:25;;;;;;;;;;;;;;;20.73;35.06;101283.65;100486;1350;60460;-82
2021/12/30 10:13:52;;;;;;;;;;;;;;;20.74;34.85;101285.41;101161;1350;60705;-82
2021/12/30 10:16:21;;;;;;;;;;;;;;;20.74;35.15;101286.51;101398;1345;72701;-82
2021/12/30 10:19:11;;;;;;;;;;;;;;;;;;;;;
2021/12/30 10:21:57;;;;;;;;;;;;;;;20.73;34.84;101287.57;101394;1345;60479;-82
2021/12/30 10:24:42;;;;;;;;;;;;;;;20.73;34.92;101289.74;101410;1348;60294;-82
2021/12/30 10:27:34;;;;;;;;;;;;;;;20.73;35.02;101288.65;100899;1347;73094;-82
2021/12/30 10:30:45;;;;;;;;;;;;;;;;;;;;;
2021/12/30 10:33:31;;;;;;;;;;;;;;;20.73;34.90;101290.45;101296;1344;61326;-81
2021/12/30 10:35:59;;;;;;;;;;;;;;;20.74;35.03;101289.54;100860;1349;61917;-82
2021/12/30 10:39:00;;;;;;;;;;;;;;;20.74;35.09;101288.30;101282;1344;72866;-82
2021/12/30 10:41:52;;;;;;;;;;;;;;;20.74;35.07;101291.30;101298;1350;74202;-82
2021/12/30 10:44:29;;;;;;;;;;;;;;;;;;;;;
2021/12/30 10:47:06;;;;;;;;;;;;;;;20.74;35.10;101296.65;100738;1347;60563;-82
2021/12/30 10:49:32;;;;;;;;;;;;;;;20.74;34.96;101298.64;100825;1347;73647;-83
2021/12/30 10:52:19;;;;;;;;;;;;;;;20.74;34.97;101299.02;100763;1348;74916;-83
2021/12/30 10:54:52;;;;;;;;;;;;;;;20.74;34.96;101298.98;100489;1353;60605;-83
2021/12/30 10:57:38;;;;;;;;;;;;;;;20.74;34.93;101298.83;100766;1347;60454;-83
2021/12/30 11:00:13;;;;;;;;;;;;;;;20.73;34.89;101297.77;100957;1349;60501;-84
2021/12/30 11:03:13;;;;;;;;;;;;;;;;;;;;;
2021/12/30 11:05:39;;;;;;;;;;;;;;;20.73;35.01;101305.66;100195;1356;61035;-82
2021/12/30 11:08:07;;;;;;;;;;;;;;;20.74;35.08;101307.40;100238;1353;60666;-82
2021/12/30 11:10:46;;;;;;;;;;;;;;;20.73;34.85;101304.91;100135;1356;72748;-82
2021/12/30 11:13:40;;;;;;;;;;;;;;;20.73;34.93;101309.06;100174;1361;75660;-81
2021/12/30 11:16:26;;;;;;;;;;;;;;;20.73;34.75;101312.45;100249;1353;60973;-82
2021/12/30 11:19:00;;;;;;;;;;;;;;;20.73;34.96;101310.84;100247;1353;61731;-82
2021/12/30 11:21:57;;;;;;;;;;;;;;;20.73;35.03;101310.84;100272;1350;73693;-82
2021/12/30 11:24:43;;;;;;;;;;;;;;;20.72;35.05;101315.01;100255;1354;75139;-82
2021/12/30 11:27:14;;;;;;;;;;;;;;;20.73;34.96;101314.42;100148;1359;60530;-82
2021/12/30 11:29:59;;;;;;;;;;;;;;;20.73;35.21;101314.42;100190;1354;60614;-82
2021/12/30 11:32:26;;;;;;;;;;;;;;;20.73;34.99;101315.89;100198;1356;72701;-81
2021/12/30 11:34:52;;;;;;;;;;;;;;;20.73;34.95;101313.71;100169;1356;74025;-82
2021/12/30 11:37:17;;;;;;;;;;;;;;;20.73;35.11;101314.81;100244;1354;60433;-82
2021/12/30 11:40:14;;;;;;;;;;;;;;;20.73;34.89;101321.23;100198;1356;60617;-81
2021/12/30 11:43:11;;;;;;;;;;;;;;;20.72;34.99;101324.88;100193;1351;73141;-82
2021/12/30 11:45:36;;;;;;;;;;;;;;;20.73;34.92;101326.10;100563;1353;72758;-82
2021/12/30 11:48:48;;;;;;;;;;;;;;;20.73;34.87;101331.80;100633;1350;60602;-83
2021/12/30 11:51:15;;;;;;;;;;;;;;;20.73;35.02;101332.70;100485;1349;60579;-83
2021/12/30 11:53:52;;;;;;;;;;;;;;;20.74;35.07;101334.61;100435;1349;71628;-83
2021/12/30 11:56:38;;;;;;;;;;;;;;;20.74;35.06;101332.83;100526;1349;74515;-83
2021/12/30 11:59:31;;;;;;;;;;;;;;;20.73;34.92;101330.91;100282;1353;60505;-82
2021/12/30 12:02:23;;;;;;;;;;;;;;;20.73;34.93;101333.73;100572;1350;61206;-82
2021/12/30 12:04:58;;;;;;;;;;;;;;;20.74;34.91;101339.08;100243;1357;73727;-82
2021/12/30 12:08:13;;;;;;;;;;;;;;;20.74;35.14;101345.33;100239;1354;74683;-82
2021/12/30 12:10:49;;;;;;;;;;;;;;;20.74;35.12;101346.93;100277;1358;60516;-82
2021/12/30 12:13:35;;;;;;;;;;;;;;;20.74;35.11;101348.37;100237;1354;60525;-82
2021/12/30 12:16:39;;;;;;;;;;;;;;;20.75;34.86;101348.13;99862;1358;72120;-81
2021/12/30 12:19:08;;;;;;;;;;;;;;;20.74;35.04;101349.95;99851;1360;74955;-82
2021/12/30 12:21:41;;;;;;;;;;;;;;;20.75;35.05;101354.23;99841;1362;60519;-82
2021/12/30 12:24:53;;;;;;;;;;;;;;;;;;;;;
2021/12/30 12:27:52;;;;;;;;;;;;;;;;;;;;;
2021/12/30 12:30:41;;;;;;;;;;;;;;;20.75;34.98;101359.35;99903;1360;74807;-82
2021/12/30 12:33:26;;;;;;;;;;;;;;;20.76;35.07;101358.42;99904;1360;60490;-82
2021/12/30 12:36:38;;;;;;;;;;;;;;;20.76;35.12;101353.23;99885;1360;62079;-82
2021/12/30 12:39:11;;;;;;;;;;;;;;;20.77;35.15;101352.14;99558;1367;73045;-82
2021/12/30 12:41:57;;;;;;;;;;;;;;;20.77;35.05;101356.96;99520;1358;75214;-82
2021/12/30 12:44:23;;;;;;;;;;;;;;;20.78;35.09;101371.59;100046;1356;61472;-82
2021/12/30 12:46:52;;;;;;;;;;;;;;;20.77;35.32;101372.52;99968;1361;60436;-82
2021/12/30 12:49:54;;;;;;;;;;;;;;;20.78;35.12;101373.55;100118;1357;72617;-81
2021/12/30 12:52:29;;;;;;;;;;;;;;;;;;;;;
2021/12/30 12:55:05;;;;;;;;;;;;;;;;;;;;;
2021/12/30 12:58:11;;;;;;;;;;;;;;;20.78;35.18;101380.18;100354;1352;60424;-81
2021/12/30 13:00:46;;;;;;;;;;;;;;;20.77;35.10;101380.20;100451;1356;73076;-82
2021/12/30 13:03:35;;;;;;;;;;;;;;;20.77;35.21;101385.74;100357;1349;74375;-82
2021/12/30 13:06:15;;;;;;;;;;;;;;;;;;;;;
2021/12/30 13:09:06;;;;;;;;;;;;;;;;;;;;;
2021/12/30 13:11:51;;;;;;;;;;;;;;;20.78;35.25;101397.88;101391;1347;73126;-81
2021/12/30 13:14:43;;;;;;;;;;;;;;;20.77;35.22;101400.41;101375;1344;74286;-82
2021/12/30 13:17:13;;;;;;;;;;;;;;;20.78;35.19;101404.52;101182;1341;60415;-82
2021/12/30 13:19:41;;;;;;;;;;;;;;;20.78;35.21;101404.33;101217;1344;61377;-82
2021/12/30 13:22:11;;;;;;;;;;;;;;;20.77;35.30;101408.48;101177;1345;73835;-81
2021/12/30 13:24:46;;;;;;;;;;;;;;;20.77;35.29;101416.69;101255;1348;73859;-82
2021/12/30 13:27:42;;;;;;;;;;;;;;;20.77;35.31;101420.63;101265;1347;60499;-81
2021/12/30 13:30:09;;;;;;;;;;;;;;;20.78;35.27;101419.17;101142;1344;60648;-81
2021/12/30 13:32:41;;;;;;;;;;;;;;;20.78;35.03;101415.58;101320;1342;73055;-82
2021/12/30 13:35:50;;;;;;;;;;;;;;;20.78;35.19;101416.10;101169;1344;74908;-82
2021/12/30 13:38:16;;;;;;;;;;;;;;;20.78;35.12;101420.95;100542;1354;60523;-82
2021/12/30 13:40:46;;;;;;;;;;;;;;;20.78;35.13;101420.58;100350;1353;60583;-82
2021/12/30 13:43:40;;;;;;;;;;;;;;;20.79;35.21;101418.22;100501;1353;73610;-82
2021/12/30 13:46:10;;;;;;;;;;;;;;;20.78;35.19;101418.79;100339;1354;73806;-82
2021/12/30 13:48:43;;;;;;;;;;;;;;;20.78;35.35;101418.77;100481;1350;60950;-82
2021/12/30 13:51:15;;;;;;;;;;;;;;;20.78;35.29;101418.45;100601;1355;60597;-82
2021/12/30 13:53:44;;;;;;;;;;;;;;;20.78;35.33;101420.58;100555;1351;73811;-82
2021/12/30 13:56:53;;;;;;;;;;;;;;;20.77;35.12;101425.83;100699;1350;75367;-82
2021/12/30 13:59:42;;;;;;;;;;;;;;;20.78;35.49;101429.37;100228;1354;60488;-81
2021/12/30 14:02:13;;;;;;;;;;;;;;;20.77;35.43;101432.06;100250;1354;61156;-82
2021/12/30 14:04:49;;;;;;;;;;;;;;;20.77;35.33;101434.95;100178;1353;73266;-81
2021/12/30 14:07:44;;;;;;;;;;;;;;;20.77;35.25;101435.67;99998;1361;75066;-82
2021/12/30 14:10:16;;;;;;;;;;;;;;;20.76;35.44;101431.42;99693;1360;61316;-81
2021/12/30 14:13:09;;;;;;;;;;;;;;;20.76;35.36;101434.96;99744;1360;60400;-81
2021/12/30 14:15:54;;;;;;;;;;;;;;;20.77;35.20;101438.89;99977;1355;71739;-82
2021/12/30 14:18:43;;;;;;;;;;;;;;;20.76;35.35;101439.64;99734;1359;75518;-82
2021/12/30 14:21:24;;;;;;;;;;;;;;;;;;;;;
2021/12/30 14:23:53;;;;;;;;;;;;;;;20.76;35.31;101445.73;99841;1359;61706;-82
2021/12/30 14:26:32;;;;;;;;;;;;;;;20.76;35.29;101450.91;99778;1360;72837;-82
2021/12/30 14:29:19;;;;;;;;;;;;;;;;;;;;;
2021/12/30 14:32:15;;;;;;;;;;;;;;;20.76;35.33;101451.47;99958;1365;60363;-83
2021/12/30 14:34:39;;;;;;;;;;;;;;;20.76;35.39;101447.89;99980;1360;60462;-83
2021/12/30 14:37:22;;;;;;;;;;;;;;;20.76;35.28;101444.67;100234;1359;73813;-83
2021/12/30 14:40:11;;;;;;;;;;;;;;;20.76;35.43;101446.45;100259;1353;73787;-83
2021/12/30 14:42:39;;;;;;;;;;;;;;;20.75;35.17;101440.95;99906;1360;61064;-83
2021/12/30 14:45:16;;;;;;;;;;;;;;;20.76;35.26;101434.67;99953;1360;61185;-83